SIK655 LIRN-LIMJ
Flight info
| Callsign | SIK655 |
|---|---|
| Flight time | 1h 24m |
| Altitude | 34000 |
| Route | VEXUV8G/24 VEXUV DCT PNZ DCT ELB DCT SPEZI M729 IDONA |
| Aircraft | A320/M-SDE2E3FGIJ1RWY/LB1 |
Departure
| Time | 2026-04-21 18:59 |
|---|---|
| Airport | Naples International Airport (LIRN) |
Arrival
| Time | 2026-04-21 20:23 |
|---|---|
| Airport | Genoa Cristoforo Colombo Airport (LIMJ) |
| Time | Latitude | Longitude | Altitude | Speed | Heading |
|---|---|---|---|---|---|
| 2026-04-21 18:47 | 40.88173 | 14.28666 | 282 ft | 0 kts | 329° |
| 2026-04-21 18:52 | 40.88171 | 14.28668 | 282 ft | 3 kts | 328° |
| 2026-04-21 18:53 | 40.88154 | 14.28682 | 287 ft | 3 kts | 327° |
| 2026-04-21 18:53 | 40.88136 | 14.28697 | 282 ft | 3 kts | 343° |
| 2026-04-21 18:53 | 40.88116 | 14.28698 | 284 ft | 3 kts | 25° |
| 2026-04-21 18:53 | 40.88103 | 14.28686 | 287 ft | 0 kts | 54° |
| 2026-04-21 18:55 | 40.88106 | 14.28691 | 286 ft | 4 kts | 54° |
| 2026-04-21 18:55 | 40.88151 | 14.28786 | 280 ft | 12 kts | 54° |
| 2026-04-21 18:55 | 40.88217 | 14.28902 | 276 ft | 18 kts | 53° |
| 2026-04-21 18:55 | 40.88296 | 14.29039 | 272 ft | 20 kts | 52° |
| 2026-04-21 18:56 | 40.88386 | 14.29199 | 267 ft | 24 kts | 53° |
| 2026-04-21 18:56 | 40.88494 | 14.29385 | 261 ft | 27 kts | 52° |
| 2026-04-21 18:56 | 40.88609 | 14.29581 | 254 ft | 27 kts | 52° |
| 2026-04-21 18:56 | 40.88731 | 14.29793 | 248 ft | 27 kts | 52° |
| 2026-04-21 18:57 | 40.88838 | 14.29978 | 242 ft | 25 kts | 52° |
| 2026-04-21 18:57 | 40.88933 | 14.30144 | 237 ft | 17 kts | 53° |
| 2026-04-21 18:57 | 40.88995 | 14.30178 | 239 ft | 9 kts | 333° |
| 2026-04-21 18:57 | 40.89045 | 14.30136 | 236 ft | 8 kts | 327° |
| 2026-04-21 18:58 | 40.89076 | 14.30089 | 236 ft | 8 kts | 279° |
| 2026-04-21 18:58 | 40.89020 | 14.29957 | 241 ft | 38 kts | 237° |
| 2026-04-21 18:58 | 40.88738 | 14.29361 | 257 ft | 112 kts | 238° |
| 2026-04-21 18:58 | 40.88224 | 14.28268 | 312 ft | 164 kts | 236° |
| 2026-04-21 18:59 | 40.87589 | 14.27064 | 1067 ft | 159 kts | 221° |
| 2026-04-21 18:59 | 40.86566 | 14.26447 | 1487 ft | 175 kts | 182° |
| 2026-04-21 18:59 | 40.85303 | 14.26695 | 1891 ft | 190 kts | 171° |
| 2026-04-21 18:59 | 40.83995 | 14.26935 | 2460 ft | 193 kts | 174° |
| 2026-04-21 19:00 | 40.82649 | 14.27116 | 3077 ft | 195 kts | 176° |
| 2026-04-21 19:00 | 40.81290 | 14.27285 | 3644 ft | 198 kts | 177° |
| 2026-04-21 19:00 | 40.79904 | 14.27444 | 4188 ft | 203 kts | 181° |
| 2026-04-21 19:00 | 40.78512 | 14.26992 | 4560 ft | 210 kts | 215° |
| 2026-04-21 19:01 | 40.77542 | 14.25644 | 5229 ft | 201 kts | 246° |
| 2026-04-21 19:01 | 40.77224 | 14.23882 | 5806 ft | 200 kts | 267° |
| 2026-04-21 19:01 | 40.77099 | 14.21959 | 6042 ft | 223 kts | 267° |
| 2026-04-21 19:01 | 40.76965 | 14.19807 | 6366 ft | 247 kts | 267° |
| 2026-04-21 19:02 | 40.76816 | 14.17468 | 6898 ft | 261 kts | 267° |
| 2026-04-21 19:02 | 40.76658 | 14.15059 | 7702 ft | 265 kts | 267° |
| 2026-04-21 19:02 | 40.76494 | 14.12622 | 8552 ft | 267 kts | 267° |
| 2026-04-21 19:02 | 40.76328 | 14.10173 | 9436 ft | 269 kts | 267° |
| 2026-04-21 19:03 | 40.76160 | 14.07700 | 10237 ft | 273 kts | 267° |
| 2026-04-21 19:03 | 40.75987 | 14.05107 | 10530 ft | 296 kts | 267° |
| 2026-04-21 19:03 | 40.75800 | 14.02304 | 10736 ft | 319 kts | 267° |
| 2026-04-21 19:03 | 40.75598 | 13.99329 | 11201 ft | 330 kts | 266° |
| 2026-04-21 19:04 | 40.75386 | 13.96293 | 11894 ft | 334 kts | 266° |
| 2026-04-21 19:04 | 40.75171 | 13.93230 | 12612 ft | 337 kts | 266° |
| 2026-04-21 19:04 | 40.74955 | 13.90141 | 13345 ft | 340 kts | 267° |
| 2026-04-21 19:04 | 40.74736 | 13.87024 | 14029 ft | 343 kts | 267° |
| 2026-04-21 19:05 | 40.74588 | 13.84943 | 14454 ft | 345 kts | 267° |
| 2026-04-21 19:05 | 40.74365 | 13.81778 | 15091 ft | 347 kts | 267° |
| 2026-04-21 19:05 | 40.74143 | 13.78594 | 15722 ft | 350 kts | 267° |
| 2026-04-21 19:05 | 40.73845 | 13.74340 | 16546 ft | 353 kts | 267° |
| 2026-04-21 19:06 | 40.73618 | 13.71103 | 17155 ft | 356 kts | 267° |
| 2026-04-21 19:06 | 40.73386 | 13.67846 | 17744 ft | 359 kts | 267° |
| 2026-04-21 19:06 | 40.73149 | 13.64556 | 18320 ft | 362 kts | 267° |
| 2026-04-21 19:06 | 40.72991 | 13.62363 | 18654 ft | 363 kts | 267° |
| 2026-04-21 19:07 | 40.72750 | 13.59035 | 19154 ft | 366 kts | 267° |
| 2026-04-21 19:07 | 40.72507 | 13.55685 | 19656 ft | 368 kts | 267° |
| 2026-04-21 19:07 | 40.72261 | 13.52313 | 20153 ft | 371 kts | 267° |
| 2026-04-21 19:07 | 40.72012 | 13.48915 | 20638 ft | 373 kts | 267° |
| 2026-04-21 19:08 | 40.71762 | 13.45499 | 21113 ft | 376 kts | 267° |
| 2026-04-21 19:08 | 40.71508 | 13.42059 | 21586 ft | 378 kts | 267° |
| 2026-04-21 19:08 | 40.71250 | 13.38587 | 22058 ft | 381 kts | 267° |
| 2026-04-21 19:08 | 40.71041 | 13.35096 | 22508 ft | 382 kts | 272° |
| 2026-04-21 19:09 | 40.71299 | 13.31621 | 22948 ft | 382 kts | 283° |
| 2026-04-21 19:09 | 40.72118 | 13.28281 | 23394 ft | 384 kts | 295° |
| 2026-04-21 19:09 | 40.73469 | 13.25238 | 23786 ft | 387 kts | 306° |
| 2026-04-21 19:09 | 40.75147 | 13.22460 | 24164 ft | 389 kts | 307° |
| 2026-04-21 19:10 | 40.76841 | 13.19669 | 24547 ft | 390 kts | 307° |
| 2026-04-21 19:10 | 40.78535 | 13.16861 | 24925 ft | 392 kts | 307° |
| 2026-04-21 19:10 | 40.80232 | 13.14036 | 25297 ft | 393 kts | 307° |
| 2026-04-21 19:10 | 40.81929 | 13.11201 | 25673 ft | 394 kts | 307° |
| 2026-04-21 19:11 | 40.83634 | 13.08351 | 26040 ft | 396 kts | 307° |
| 2026-04-21 19:11 | 40.85344 | 13.05492 | 26402 ft | 398 kts | 306° |
| 2026-04-21 19:11 | 40.87063 | 13.02616 | 26764 ft | 399 kts | 306° |
| 2026-04-21 19:11 | 40.88787 | 12.99734 | 27115 ft | 401 kts | 306° |
| 2026-04-21 19:12 | 40.90519 | 12.96840 | 27452 ft | 402 kts | 307° |
| 2026-04-21 19:12 | 40.92399 | 12.94079 | 27779 ft | 406 kts | 312° |
| 2026-04-21 19:12 | 40.94374 | 12.91417 | 28105 ft | 407 kts | 311° |
| 2026-04-21 19:12 | 40.96359 | 12.88732 | 28415 ft | 409 kts | 311° |
| 2026-04-21 19:13 | 40.98324 | 12.86070 | 28718 ft | 410 kts | 311° |
| 2026-04-21 19:13 | 41.00344 | 12.83332 | 29025 ft | 412 kts | 311° |
| 2026-04-21 19:13 | 41.02351 | 12.80616 | 29315 ft | 413 kts | 311° |
| 2026-04-21 19:13 | 41.04366 | 12.77890 | 29656 ft | 414 kts | 311° |
| 2026-04-21 19:14 | 41.06350 | 12.75205 | 30083 ft | 412 kts | 311° |
| 2026-04-21 19:14 | 41.08353 | 12.72497 | 30450 ft | 410 kts | 311° |
| 2026-04-21 19:14 | 41.10345 | 12.69798 | 30830 ft | 408 kts | 311° |
| 2026-04-21 19:14 | 41.12321 | 12.67111 | 31222 ft | 406 kts | 311° |
| 2026-04-21 19:15 | 41.14285 | 12.64431 | 31606 ft | 404 kts | 311° |
| 2026-04-21 19:15 | 41.16240 | 12.61762 | 31988 ft | 402 kts | 311° |
| 2026-04-21 19:15 | 41.18178 | 12.59109 | 32377 ft | 400 kts | 311° |
| 2026-04-21 19:15 | 41.20113 | 12.56458 | 32762 ft | 398 kts | 311° |
| 2026-04-21 19:16 | 41.22035 | 12.53830 | 33143 ft | 396 kts | 311° |
| 2026-04-21 19:16 | 41.23952 | 12.51213 | 33528 ft | 394 kts | 311° |
| 2026-04-21 19:16 | 41.25863 | 12.48604 | 33878 ft | 393 kts | 311° |
| 2026-04-21 19:17 | 41.31457 | 12.40935 | 33952 ft | 366 kts | 311° |
| 2026-04-21 19:17 | 41.33188 | 12.38564 | 33948 ft | 350 kts | 311° |
| 2026-04-21 19:17 | 41.34847 | 12.36286 | 33948 ft | 335 kts | 311° |
| 2026-04-21 19:18 | 41.38003 | 12.31933 | 33953 ft | 324 kts | 310° |
| 2026-04-21 19:18 | 41.41049 | 12.27717 | 33953 ft | 326 kts | 310° |
| 2026-04-21 19:19 | 41.44198 | 12.23370 | 33951 ft | 326 kts | 310° |
| 2026-04-21 19:19 | 41.47344 | 12.19021 | 33950 ft | 326 kts | 310° |
| 2026-04-21 19:20 | 41.50468 | 12.14696 | 33945 ft | 326 kts | 310° |
| 2026-04-21 19:20 | 41.53609 | 12.10343 | 33950 ft | 325 kts | 310° |
| 2026-04-21 19:21 | 41.56748 | 12.05993 | 33951 ft | 325 kts | 310° |
| 2026-04-21 19:21 | 41.59877 | 12.01634 | 33957 ft | 325 kts | 310° |
| 2026-04-21 19:22 | 41.63002 | 11.97267 | 33955 ft | 325 kts | 310° |
| 2026-04-21 19:22 | 41.66131 | 11.92901 | 33951 ft | 325 kts | 310° |
| 2026-04-21 19:23 | 41.69253 | 11.88539 | 33955 ft | 325 kts | 310° |
| 2026-04-21 19:23 | 41.72370 | 11.84168 | 33955 ft | 324 kts | 310° |
| 2026-04-21 19:24 | 41.75484 | 11.79802 | 33971 ft | 324 kts | 310° |
| 2026-04-21 19:24 | 41.78605 | 11.75433 | 33969 ft | 324 kts | 310° |
| 2026-04-21 19:25 | 41.81713 | 11.71059 | 33966 ft | 324 kts | 310° |
| 2026-04-21 19:25 | 41.84801 | 11.66700 | 33957 ft | 324 kts | 310° |
| 2026-04-21 19:26 | 41.87928 | 11.62287 | 33963 ft | 324 kts | 310° |
| 2026-04-21 19:26 | 41.91014 | 11.57936 | 33964 ft | 324 kts | 310° |
| 2026-04-21 19:27 | 41.94117 | 11.53558 | 33962 ft | 323 kts | 310° |
| 2026-04-21 19:27 | 41.97213 | 11.49178 | 33963 ft | 323 kts | 310° |
| 2026-04-21 19:28 | 42.00303 | 11.44790 | 33964 ft | 323 kts | 310° |
| 2026-04-21 19:28 | 42.03382 | 11.40405 | 33958 ft | 322 kts | 310° |
| 2026-04-21 19:29 | 42.06460 | 11.36016 | 33958 ft | 322 kts | 310° |
| 2026-04-21 19:29 | 42.09534 | 11.31630 | 33956 ft | 322 kts | 310° |
| 2026-04-21 19:30 | 42.12607 | 11.27247 | 33955 ft | 322 kts | 310° |
| 2026-04-21 19:30 | 42.15676 | 11.22864 | 33959 ft | 321 kts | 310° |
| 2026-04-21 19:31 | 42.18747 | 11.18470 | 33955 ft | 322 kts | 310° |
| 2026-04-21 19:31 | 42.21815 | 11.14080 | 33955 ft | 321 kts | 310° |
| 2026-04-21 19:32 | 42.24855 | 11.09715 | 33955 ft | 321 kts | 310° |
| 2026-04-21 19:32 | 42.27914 | 11.05319 | 33953 ft | 321 kts | 310° |
| 2026-04-21 19:33 | 42.30964 | 11.00921 | 33953 ft | 320 kts | 310° |
| 2026-04-21 19:33 | 42.34007 | 10.96529 | 33937 ft | 320 kts | 310° |
| 2026-04-21 19:34 | 42.37050 | 10.92128 | 33937 ft | 320 kts | 310° |
| 2026-04-21 19:34 | 42.40100 | 10.87725 | 33680 ft | 325 kts | 310° |
| 2026-04-21 19:35 | 42.41640 | 10.85499 | 33329 ft | 323 kts | 310° |
| 2026-04-21 19:35 | 42.44714 | 10.81036 | 32790 ft | 325 kts | 310° |
| 2026-04-21 19:35 | 42.46257 | 10.78789 | 32526 ft | 327 kts | 310° |
| 2026-04-21 19:36 | 42.47806 | 10.76532 | 32260 ft | 328 kts | 310° |
| 2026-04-21 19:36 | 42.49364 | 10.74264 | 32000 ft | 329 kts | 310° |
| 2026-04-21 19:36 | 42.50929 | 10.71989 | 31741 ft | 331 kts | 310° |
| 2026-04-21 19:36 | 42.52501 | 10.69703 | 31482 ft | 332 kts | 310° |
| 2026-04-21 19:37 | 42.54080 | 10.67407 | 31235 ft | 334 kts | 310° |
| 2026-04-21 19:37 | 42.55665 | 10.65098 | 30990 ft | 335 kts | 310° |
| 2026-04-21 19:37 | 42.57253 | 10.62779 | 30741 ft | 336 kts | 310° |
| 2026-04-21 19:37 | 42.58848 | 10.60443 | 30497 ft | 338 kts | 310° |
| 2026-04-21 19:38 | 42.60446 | 10.58104 | 30250 ft | 339 kts | 311° |
| 2026-04-21 19:38 | 42.62051 | 10.55755 | 30025 ft | 340 kts | 310° |
| 2026-04-21 19:38 | 42.63116 | 10.54196 | 29926 ft | 340 kts | 310° |
| 2026-04-21 19:39 | 42.66882 | 10.48679 | 29948 ft | 341 kts | 311° |
| 2026-04-21 19:39 | 42.70112 | 10.43954 | 29954 ft | 341 kts | 311° |
| 2026-04-21 19:40 | 42.73560 | 10.39517 | 29956 ft | 344 kts | 320° |
| 2026-04-21 19:40 | 42.77669 | 10.36117 | 29954 ft | 347 kts | 327° |
| 2026-04-21 19:41 | 42.81891 | 10.32951 | 29951 ft | 346 kts | 327° |
| 2026-04-21 19:41 | 42.86095 | 10.29774 | 29953 ft | 346 kts | 327° |
| 2026-04-21 19:42 | 42.90295 | 10.26592 | 29954 ft | 345 kts | 327° |
| 2026-04-21 19:42 | 42.94496 | 10.23419 | 29955 ft | 345 kts | 327° |
| 2026-04-21 19:43 | 42.98695 | 10.20241 | 29955 ft | 345 kts | 327° |
| 2026-04-21 19:43 | 43.02880 | 10.17055 | 29954 ft | 344 kts | 327° |
| 2026-04-21 19:44 | 43.07060 | 10.13872 | 29955 ft | 344 kts | 327° |
| 2026-04-21 19:44 | 43.11238 | 10.10697 | 29959 ft | 343 kts | 327° |
| 2026-04-21 19:45 | 43.15384 | 10.07540 | 29956 ft | 343 kts | 327° |
| 2026-04-21 19:45 | 43.19552 | 10.04357 | 29957 ft | 342 kts | 327° |
| 2026-04-21 19:46 | 43.23711 | 10.01176 | 29953 ft | 342 kts | 327° |
| 2026-04-21 19:46 | 43.27851 | 9.97999 | 29632 ft | 339 kts | 326° |
| 2026-04-21 19:46 | 43.29898 | 9.96425 | 29080 ft | 336 kts | 326° |
| 2026-04-21 19:47 | 43.31960 | 9.94838 | 28272 ft | 341 kts | 326° |
| 2026-04-21 19:47 | 43.34031 | 9.93243 | 27663 ft | 341 kts | 327° |
| 2026-04-21 19:47 | 43.36103 | 9.91652 | 27123 ft | 340 kts | 327° |
| 2026-04-21 19:47 | 43.38159 | 9.90076 | 26619 ft | 338 kts | 327° |
| 2026-04-21 19:48 | 43.40208 | 9.88506 | 26117 ft | 335 kts | 326° |
| 2026-04-21 19:48 | 43.42238 | 9.86943 | 25638 ft | 333 kts | 326° |
| 2026-04-21 19:48 | 43.44254 | 9.85384 | 25159 ft | 331 kts | 326° |
| 2026-04-21 19:48 | 43.46242 | 9.83812 | 24686 ft | 328 kts | 324° |
| 2026-04-21 19:49 | 43.48177 | 9.82165 | 24234 ft | 326 kts | 323° |
| 2026-04-21 19:49 | 43.50055 | 9.80497 | 23785 ft | 324 kts | 323° |
| 2026-04-21 19:49 | 43.51934 | 9.78801 | 23306 ft | 322 kts | 322° |
| 2026-04-21 19:49 | 43.53800 | 9.77112 | 22812 ft | 320 kts | 322° |
| 2026-04-21 19:50 | 43.55053 | 9.75979 | 22481 ft | 318 kts | 323° |
| 2026-04-21 19:50 | 43.57503 | 9.73780 | 21875 ft | 316 kts | 323° |
| 2026-04-21 19:50 | 43.58750 | 9.72666 | 21575 ft | 315 kts | 323° |
| 2026-04-21 19:50 | 43.60582 | 9.71034 | 21129 ft | 313 kts | 323° |
| 2026-04-21 19:51 | 43.62404 | 9.69410 | 20694 ft | 311 kts | 323° |
| 2026-04-21 19:51 | 43.64216 | 9.67794 | 20270 ft | 309 kts | 323° |
| 2026-04-21 19:51 | 43.66020 | 9.66186 | 19856 ft | 307 kts | 323° |
| 2026-04-21 19:51 | 43.67785 | 9.64611 | 19445 ft | 306 kts | 323° |
| 2026-04-21 19:52 | 43.69566 | 9.63021 | 19037 ft | 304 kts | 323° |
| 2026-04-21 19:52 | 43.71341 | 9.61435 | 18636 ft | 303 kts | 323° |
| 2026-04-21 19:52 | 43.73105 | 9.59860 | 18247 ft | 301 kts | 323° |
| 2026-04-21 19:52 | 43.74862 | 9.58288 | 17806 ft | 300 kts | 323° |
| 2026-04-21 19:53 | 43.76610 | 9.56722 | 17365 ft | 299 kts | 323° |
| 2026-04-21 19:53 | 43.78350 | 9.55162 | 16939 ft | 298 kts | 323° |
| 2026-04-21 19:53 | 43.80086 | 9.53605 | 16537 ft | 297 kts | 323° |
| 2026-04-21 19:53 | 43.81827 | 9.52074 | 16127 ft | 297 kts | 328° |
| 2026-04-21 19:54 | 43.83779 | 9.51078 | 15741 ft | 301 kts | 339° |
| 2026-04-21 19:54 | 43.85790 | 9.50277 | 15352 ft | 300 kts | 339° |
| 2026-04-21 19:54 | 43.87798 | 9.49482 | 15014 ft | 299 kts | 340° |
| 2026-04-21 19:54 | 43.89793 | 9.48692 | 14952 ft | 293 kts | 340° |
| 2026-04-21 19:55 | 43.91722 | 9.47928 | 14839 ft | 284 kts | 339° |
| 2026-04-21 19:55 | 43.93595 | 9.47187 | 14719 ft | 276 kts | 339° |
| 2026-04-21 19:55 | 43.95411 | 9.46467 | 14601 ft | 268 kts | 339° |
| 2026-04-21 19:55 | 43.97182 | 9.45765 | 14426 ft | 263 kts | 339° |
| 2026-04-21 19:56 | 43.98935 | 9.45064 | 14145 ft | 262 kts | 339° |
| 2026-04-21 19:56 | 44.00686 | 9.44359 | 13860 ft | 262 kts | 339° |
| 2026-04-21 19:56 | 44.02436 | 9.43656 | 13547 ft | 261 kts | 340° |
| 2026-04-21 19:56 | 44.04180 | 9.42958 | 13291 ft | 258 kts | 340° |
| 2026-04-21 19:57 | 44.05882 | 9.42278 | 13159 ft | 251 kts | 340° |
| 2026-04-21 19:57 | 44.07538 | 9.41616 | 13033 ft | 244 kts | 340° |
| 2026-04-21 19:57 | 44.09127 | 9.40981 | 12883 ft | 238 kts | 339° |
| 2026-04-21 19:57 | 44.10706 | 9.40348 | 12643 ft | 236 kts | 340° |
| 2026-04-21 19:58 | 44.12278 | 9.39717 | 12364 ft | 235 kts | 340° |
| 2026-04-21 19:58 | 44.13845 | 9.39088 | 12083 ft | 234 kts | 339° |
| 2026-04-21 19:58 | 44.15323 | 9.38193 | 11796 ft | 230 kts | 326° |
| 2026-04-21 19:58 | 44.16619 | 9.36907 | 11494 ft | 229 kts | 320° |
| 2026-04-21 19:59 | 44.17887 | 9.35561 | 11194 ft | 229 kts | 321° |
| 2026-04-21 19:59 | 44.19157 | 9.34219 | 10902 ft | 229 kts | 321° |
| 2026-04-21 19:59 | 44.20428 | 9.32879 | 10611 ft | 229 kts | 321° |
| 2026-04-21 19:59 | 44.21698 | 9.31541 | 10331 ft | 229 kts | 321° |
| 2026-04-21 20:00 | 44.22963 | 9.30209 | 10132 ft | 225 kts | 321° |
| 2026-04-21 20:00 | 44.24195 | 9.28910 | 9982 ft | 220 kts | 321° |
| 2026-04-21 20:00 | 44.25406 | 9.27632 | 9743 ft | 218 kts | 321° |
| 2026-04-21 20:00 | 44.26617 | 9.26354 | 9476 ft | 218 kts | 321° |
| 2026-04-21 20:01 | 44.27823 | 9.25079 | 9200 ft | 217 kts | 321° |
| 2026-04-21 20:01 | 44.29030 | 9.23801 | 8948 ft | 216 kts | 321° |
| 2026-04-21 20:01 | 44.30212 | 9.22551 | 8822 ft | 209 kts | 321° |
| 2026-04-21 20:01 | 44.31356 | 9.21341 | 8692 ft | 203 kts | 321° |
| 2026-04-21 20:02 | 44.32469 | 9.20167 | 8558 ft | 198 kts | 321° |
| 2026-04-21 20:02 | 44.33428 | 9.18829 | 8376 ft | 195 kts | 304° |
| 2026-04-21 20:02 | 44.34055 | 9.17164 | 8150 ft | 194 kts | 288° |
| 2026-04-21 20:02 | 44.34446 | 9.15354 | 7936 ft | 195 kts | 287° |
| 2026-04-21 20:03 | 44.34839 | 9.13547 | 7702 ft | 195 kts | 287° |
| 2026-04-21 20:03 | 44.35078 | 9.11699 | 7474 ft | 195 kts | 263° |
| 2026-04-21 20:03 | 44.34663 | 9.09900 | 7240 ft | 196 kts | 246° |
| 2026-04-21 20:03 | 44.34058 | 9.08196 | 7010 ft | 195 kts | 244° |
| 2026-04-21 20:04 | 44.33211 | 9.06733 | 6717 ft | 197 kts | 212° |
| 2026-04-21 20:04 | 44.31895 | 9.06274 | 6431 ft | 199 kts | 174° |
| 2026-04-21 20:04 | 44.30576 | 9.06852 | 6134 ft | 200 kts | 156° |
| 2026-04-21 20:04 | 44.29327 | 9.07685 | 6031 ft | 199 kts | 154° |
| 2026-04-21 20:05 | 44.28071 | 9.08562 | 6030 ft | 211 kts | 154° |
| 2026-04-21 20:05 | 44.26716 | 9.09514 | 6019 ft | 221 kts | 154° |
| 2026-04-21 20:05 | 44.25336 | 9.10484 | 6025 ft | 223 kts | 154° |
| 2026-04-21 20:05 | 44.23953 | 9.11459 | 6024 ft | 223 kts | 154° |
| 2026-04-21 20:06 | 44.22524 | 9.12295 | 6024 ft | 222 kts | 172° |
| 2026-04-21 20:06 | 44.20988 | 9.12414 | 6027 ft | 222 kts | 182° |
| 2026-04-21 20:06 | 44.19465 | 9.12350 | 5958 ft | 221 kts | 183° |
| 2026-04-21 20:06 | 44.17933 | 9.12257 | 5664 ft | 220 kts | 184° |
| 2026-04-21 20:07 | 44.16405 | 9.12151 | 5375 ft | 219 kts | 184° |
| 2026-04-21 20:07 | 44.14890 | 9.12038 | 5106 ft | 217 kts | 184° |
| 2026-04-21 20:07 | 44.13386 | 9.11918 | 5016 ft | 217 kts | 184° |
| 2026-04-21 20:07 | 44.11878 | 9.11796 | 5024 ft | 218 kts | 184° |
| 2026-04-21 20:08 | 44.10362 | 9.11674 | 5023 ft | 218 kts | 184° |
| 2026-04-21 20:08 | 44.08847 | 9.11553 | 5022 ft | 218 kts | 183° |
| 2026-04-21 20:08 | 44.07371 | 9.11895 | 5023 ft | 218 kts | 152° |
| 2026-04-21 20:08 | 44.06280 | 9.13313 | 5022 ft | 217 kts | 121° |
| 2026-04-21 20:09 | 44.05575 | 9.15176 | 5022 ft | 219 kts | 115° |
| 2026-04-21 20:09 | 44.04940 | 9.17102 | 5024 ft | 219 kts | 114° |
| 2026-04-21 20:09 | 44.04398 | 9.19072 | 5019 ft | 218 kts | 97° |
| 2026-04-21 20:09 | 44.04584 | 9.21127 | 5027 ft | 216 kts | 64° |
| 2026-04-21 20:10 | 44.05345 | 9.22933 | 5022 ft | 217 kts | 55° |
| 2026-04-21 20:10 | 44.06202 | 9.24658 | 5027 ft | 217 kts | 54° |
| 2026-04-21 20:10 | 44.07073 | 9.26371 | 5028 ft | 217 kts | 54° |
| 2026-04-21 20:10 | 44.07948 | 9.28081 | 5024 ft | 217 kts | 54° |
| 2026-04-21 20:11 | 44.08826 | 9.29792 | 5023 ft | 217 kts | 54° |
| 2026-04-21 20:11 | 44.09705 | 9.31500 | 5026 ft | 217 kts | 53° |
| 2026-04-21 20:11 | 44.10584 | 9.33205 | 5024 ft | 217 kts | 54° |
| 2026-04-21 20:11 | 44.11464 | 9.34909 | 5024 ft | 217 kts | 53° |
| 2026-04-21 20:12 | 44.12343 | 9.36613 | 5026 ft | 217 kts | 54° |
| 2026-04-21 20:12 | 44.13223 | 9.38318 | 5023 ft | 217 kts | 54° |
| 2026-04-21 20:12 | 44.14102 | 9.40018 | 5024 ft | 217 kts | 54° |
| 2026-04-21 20:12 | 44.14981 | 9.41719 | 5023 ft | 217 kts | 53° |
| 2026-04-21 20:13 | 44.15867 | 9.43421 | 5022 ft | 216 kts | 50° |
| 2026-04-21 20:13 | 44.17024 | 9.44719 | 5024 ft | 215 kts | 22° |
| 2026-04-21 20:13 | 44.18476 | 9.45077 | 5025 ft | 214 kts | 353° |
| 2026-04-21 20:13 | 44.19862 | 9.44388 | 5023 ft | 214 kts | 323° |
| 2026-04-21 20:14 | 44.20839 | 9.42853 | 5026 ft | 214 kts | 300° |
| 2026-04-21 20:14 | 44.21580 | 9.41042 | 5025 ft | 215 kts | 300° |
| 2026-04-21 20:14 | 44.22321 | 9.39228 | 5025 ft | 215 kts | 300° |
| 2026-04-21 20:14 | 44.23064 | 9.37416 | 5027 ft | 215 kts | 300° |
| 2026-04-21 20:15 | 44.23809 | 9.35601 | 5022 ft | 215 kts | 300° |
| 2026-04-21 20:15 | 44.24555 | 9.33791 | 5024 ft | 215 kts | 300° |
| 2026-04-21 20:15 | 44.25300 | 9.31978 | 5025 ft | 215 kts | 300° |
| 2026-04-21 20:15 | 44.26044 | 9.30163 | 5026 ft | 215 kts | 300° |
| 2026-04-21 20:16 | 44.26787 | 9.28349 | 5028 ft | 215 kts | 300° |
| 2026-04-21 20:16 | 44.27530 | 9.26538 | 5027 ft | 215 kts | 300° |
| 2026-04-21 20:16 | 44.28310 | 9.24790 | 5024 ft | 215 kts | 310° |
| 2026-04-21 20:16 | 44.29411 | 9.23392 | 5031 ft | 215 kts | 323° |
| 2026-04-21 20:17 | 44.30607 | 9.22141 | 5033 ft | 215 kts | 323° |
| 2026-04-21 20:17 | 44.31815 | 9.20864 | 5031 ft | 215 kts | 323° |
| 2026-04-21 20:17 | 44.32969 | 9.19585 | 5027 ft | 215 kts | 315° |
| 2026-04-21 20:17 | 44.33857 | 9.17912 | 4903 ft | 214 kts | 296° |
| 2026-04-21 20:18 | 44.34212 | 9.16599 | 4734 ft | 214 kts | 287° |
| 2026-04-21 20:18 | 44.34806 | 9.13973 | 4355 ft | 215 kts | 287° |
| 2026-04-21 20:18 | 44.35251 | 9.11963 | 4055 ft | 217 kts | 287° |
| 2026-04-21 20:18 | 44.35693 | 9.09934 | 3746 ft | 219 kts | 287° |
| 2026-04-21 20:19 | 44.36137 | 9.07888 | 3432 ft | 219 kts | 287° |
| 2026-04-21 20:19 | 44.36574 | 9.05876 | 3131 ft | 213 kts | 287° |
| 2026-04-21 20:19 | 44.36999 | 9.03915 | 2844 ft | 210 kts | 287° |
| 2026-04-21 20:19 | 44.37424 | 9.01951 | 2542 ft | 211 kts | 287° |
| 2026-04-21 20:20 | 44.37841 | 9.00024 | 2244 ft | 203 kts | 287° |
| 2026-04-21 20:20 | 44.38240 | 8.98176 | 1986 ft | 193 kts | 287° |
| 2026-04-21 20:20 | 44.38616 | 8.96434 | 1706 ft | 182 kts | 287° |
| 2026-04-21 20:20 | 44.38962 | 8.94834 | 1463 ft | 162 kts | 287° |
| 2026-04-21 20:21 | 44.39283 | 8.93380 | 1189 ft | 150 kts | 287° |
| 2026-04-21 20:21 | 44.39583 | 8.92017 | 987 ft | 145 kts | 288° |
| 2026-04-21 20:21 | 44.39882 | 8.90693 | 783 ft | 141 kts | 288° |
| 2026-04-21 20:21 | 44.40158 | 8.89380 | 620 ft | 140 kts | 287° |
| 2026-04-21 20:22 | 44.40422 | 8.88065 | 420 ft | 141 kts | 285° |
| 2026-04-21 20:22 | 44.40946 | 8.85443 | 37 ft | 138 kts | 285° |
| 2026-04-21 20:22 | 44.41170 | 8.84309 | 22 ft | 89 kts | 285° |
| 2026-04-21 20:23 | 44.41270 | 8.83837 | 20 ft | 30 kts | 308° |
| 2026-04-21 20:23 | 44.41393 | 8.83761 | 22 ft | 14 kts | 22° |
| 2026-04-21 20:23 | 44.41409 | 8.83877 | 21 ft | 13 kts | 110° |
| 2026-04-21 20:23 | 44.41384 | 8.83992 | 20 ft | 13 kts | 104° |
| 2026-04-21 20:24 | 44.41355 | 8.84149 | 21 ft | 18 kts | 104° |
| 2026-04-21 20:24 | 44.41322 | 8.84328 | 20 ft | 16 kts | 105° |
| 2026-04-21 20:24 | 44.41323 | 8.84422 | 21 ft | 9 kts | 52° |
| 2026-04-21 20:24 | 44.41361 | 8.84490 | 20 ft | 9 kts | 53° |
| 2026-04-21 20:25 | 44.41395 | 8.84552 | 20 ft | 8 kts | 52° |
| 2026-04-21 20:25 | 44.41428 | 8.84612 | 20 ft | 7 kts | 52° |
| 2026-04-21 20:25 | 44.41457 | 8.84663 | 20 ft | 6 kts | 52° |
| 2026-04-21 20:25 | 44.41485 | 8.84708 | 20 ft | 5 kts | 30° |
| 2026-04-21 20:26 | 44.41525 | 8.84688 | 21 ft | 9 kts | 329° |
| 2026-04-21 20:26 | 44.41551 | 8.84672 | 21 ft | 0 kts | 323° |